KPRX/PRX METAR and TAF weather

Enter ICAO airport designator
Station Type Date Time Source
KPRX METAR 2020/04/05 21:56 UTC NOAA

KPRX 052156Z AUTO 13004KT 10SM BKN015 18/14 A3005 RMK AO2 SLP192 T01780144


Station Type Date Time Source
KPRX Decoded METAR 2020/04/05 21:56 UTC NOAA

Paris / Cox Field, TX, United States (KPRX) 33-38N 095-27W
Apr 05, 2020 - 05:56 PM EDT / 2020.04.05 2156 UTC
Wind: from the SE (130 degrees) at 5 MPH (4 KT):0
Visibility: 10 mile(s):0
Sky conditions: mostly cloudy
Temperature: 64.0 F (17.8 C)
Dew Point: 57.9 F (14.4 C)
Relative Humidity: 80%
Pressure (altimeter): 30.05 in. Hg (1017 hPa)
ob: KPRX 052156Z AUTO 13004KT 10SM BKN015 18/14 A3005 RMK AO2 SLP192 T01780144
cycle: 22

Station Type Date Time Source
KPRX TAF UTC NOAA

Error!

Example: see airport list